sensor_id;sensor_type;location;lat;lon;timestamp;P1;durP1;ratioP1;P2;durP2;ratioP2
30635;SDS011;17400;52.392;9.750;2022-11-20T00:01:19;18.77;;;9.77;;
30635;SDS011;17400;52.392;9.750;2022-11-20T00:03:48;19.63;;;10.37;;
30635;SDS011;17400;52.392;9.750;2022-11-20T00:06:17;19.93;;;10.17;;
30635;SDS011;17400;52.392;9.750;2022-11-20T00:08:46;21.47;;;10.80;;
30635;SDS011;17400;52.392;9.750;2022-11-20T00:11:15;19.53;;;10.93;;
30635;SDS011;17400;52.392;9.750;2022-11-20T00:13:48;17.33;;;10.90;;
30635;SDS011;17400;52.392;9.750;2022-11-20T00:16:17;22.97;;;10.30;;
30635;SDS011;17400;52.392;9.750;2022-11-20T00:18:48;20.23;;;10.07;;
30635;SDS011;17400;52.392;9.750;2022-11-20T00:21:17;21.13;;;10.57;;
30635;SDS011;17400;52.392;9.750;2022-11-20T00:23:47;21.10;;;11.47;;
30635;SDS011;17400;52.392;9.750;2022-11-20T00:26:16;25.13;;;12.27;;
30635;SDS011;17400;52.392;9.750;2022-11-20T00:28:48;23.50;;;13.63;;
30635;SDS011;17400;52.392;9.750;2022-11-20T00:31:19;22.10;;;11.90;;
30635;SDS011;17400;52.392;9.750;2022-11-20T00:33:48;18.63;;;10.30;;
30635;SDS011;17400;52.392;9.750;2022-11-20T00:36:17;22.53;;;11.60;;
30635;SDS011;17400;52.392;9.750;2022-11-20T00:38:46;18.50;;;10.27;;
30635;SDS011;17400;52.392;9.750;2022-11-20T00:41:15;19.33;;;10.43;;
30635;SDS011;17400;52.392;9.750;2022-11-20T00:43:43;23.90;;;11.23;;
30635;SDS011;17400;52.392;9.750;2022-11-20T00:46:13;21.93;;;10.63;;
30635;SDS011;17400;52.392;9.750;2022-11-20T00:48:43;17.87;;;10.77;;
30635;SDS011;17400;52.392;9.750;2022-11-20T00:51:12;18.07;;;10.43;;
30635;SDS011;17400;52.392;9.750;2022-11-20T00:53:41;23.20;;;10.73;;
30635;SDS011;17400;52.392;9.750;2022-11-20T00:56:10;20.47;;;11.93;;
30635;SDS011;17400;52.392;9.750;2022-11-20T00:58:39;17.60;;;10.73;;
30635;SDS011;17400;52.392;9.750;2022-11-20T01:01:09;21.40;;;12.23;;
30635;SDS011;17400;52.392;9.750;2022-11-20T01:03:39;19.43;;;11.27;;
30635;SDS011;17400;52.392;9.750;2022-11-20T01:06:11;19.70;;;10.33;;
30635;SDS011;17400;52.392;9.750;2022-11-20T01:08:40;19.37;;;11.63;;
30635;SDS011;17400;52.392;9.750;2022-11-20T01:11:09;17.93;;;10.23;;
30635;SDS011;17400;52.392;9.750;2022-11-20T01:13:38;18.30;;;10.33;;
30635;SDS011;17400;52.392;9.750;2022-11-20T01:16:08;20.03;;;11.47;;
30635;SDS011;17400;52.392;9.750;2022-11-20T01:18:38;18.57;;;10.47;;
30635;SDS011;17400;52.392;9.750;2022-11-20T01:21:08;17.27;;;9.80;;
30635;SDS011;17400;52.392;9.750;2022-11-20T01:23:41;17.07;;;10.43;;
30635;SDS011;17400;52.392;9.750;2022-11-20T01:26:11;18.30;;;10.73;;
30635;SDS011;17400;52.392;9.750;2022-11-20T01:28:40;17.37;;;11.30;;
30635;SDS011;17400;52.392;9.750;2022-11-20T01:31:12;14.30;;;9.67;;
30635;SDS011;17400;52.392;9.750;2022-11-20T01:33:41;19.40;;;10.10;;
30635;SDS011;17400;52.392;9.750;2022-11-20T01:36:11;16.67;;;9.50;;
30635;SDS011;17400;52.392;9.750;2022-11-20T01:38:40;19.30;;;9.20;;
30635;SDS011;17400;52.392;9.750;2022-11-20T01:41:09;14.87;;;10.27;;
30635;SDS011;17400;52.392;9.750;2022-11-20T01:43:58;18.50;;;10.67;;
30635;SDS011;17400;52.392;9.750;2022-11-20T01:46:25;18.93;;;10.37;;
30635;SDS011;17400;52.392;9.750;2022-11-20T01:48:54;17.37;;;10.00;;
30635;SDS011;17400;52.392;9.750;2022-11-20T01:51:29;19.63;;;9.20;;
30635;SDS011;17400;52.392;9.750;2022-11-20T01:54:03;15.50;;;7.57;;
30635;SDS011;17400;52.392;9.750;2022-11-20T01:56:35;12.27;;;7.23;;
30635;SDS011;17400;52.392;9.750;2022-11-20T01:59:07;16.20;;;9.47;;
30635;SDS011;17400;52.392;9.750;2022-11-20T02:01:37;15.17;;;8.07;;
30635;SDS011;17400;52.392;9.750;2022-11-20T02:04:06;16.27;;;8.83;;
30635;SDS011;17400;52.392;9.750;2022-11-20T02:06:38;16.23;;;9.50;;
30635;SDS011;17400;52.392;9.750;2022-11-20T02:09:10;18.93;;;9.13;;
30635;SDS011;17400;52.392;9.750;2022-11-20T02:11:38;13.93;;;8.13;;
30635;SDS011;17400;52.392;9.750;2022-11-20T02:14:06;11.77;;;6.27;;
30635;SDS011;17400;52.392;9.750;2022-11-20T02:16:36;16.87;;;9.43;;
30635;SDS011;17400;52.392;9.750;2022-11-20T02:19:07;15.37;;;8.93;;
30635;SDS011;17400;52.392;9.750;2022-11-20T02:21:43;14.27;;;7.83;;
30635;SDS011;17400;52.392;9.750;2022-11-20T02:24:18;14.20;;;8.30;;
30635;SDS011;17400;52.392;9.750;2022-11-20T02:26:48;12.80;;;7.30;;
30635;SDS011;17400;52.392;9.750;2022-11-20T02:29:23;15.90;;;8.07;;
30635;SDS011;17400;52.392;9.750;2022-11-20T02:31:53;16.53;;;8.17;;
30635;SDS011;17400;52.392;9.750;2022-11-20T02:34:23;13.43;;;7.80;;
30635;SDS011;17400;52.392;9.750;2022-11-20T02:36:50;19.97;;;9.23;;
30635;SDS011;17400;52.392;9.750;2022-11-20T02:39:20;16.57;;;9.63;;
30635;SDS011;17400;52.392;9.750;2022-11-20T02:41:52;15.73;;;9.63;;
30635;SDS011;17400;52.392;9.750;2022-11-20T02:44:21;18.00;;;8.27;;
30635;SDS011;17400;52.392;9.750;2022-11-20T02:46:48;16.00;;;9.90;;
30635;SDS011;17400;52.392;9.750;2022-11-20T02:49:16;14.63;;;9.37;;
30635;SDS011;17400;52.392;9.750;2022-11-20T02:51:44;21.83;;;10.97;;
30635;SDS011;17400;52.392;9.750;2022-11-20T02:54:12;22.30;;;12.00;;
30635;SDS011;17400;52.392;9.750;2022-11-20T02:56:41;21.43;;;11.50;;
30635;SDS011;17400;52.392;9.750;2022-11-20T02:59:09;20.93;;;11.50;;
30635;SDS011;17400;52.392;9.750;2022-11-20T03:01:37;19.93;;;11.67;;
30635;SDS011;17400;52.392;9.750;2022-11-20T03:04:05;22.60;;;12.87;;
30635;SDS011;17400;52.392;9.750;2022-11-20T03:06:33;23.23;;;10.37;;
30635;SDS011;17400;52.392;9.750;2022-11-20T03:09:01;22.67;;;12.07;;
30635;SDS011;17400;52.392;9.750;2022-11-20T03:11:29;23.37;;;10.83;;
30635;SDS011;17400;52.392;9.750;2022-11-20T03:13:58;18.90;;;11.47;;
30635;SDS011;17400;52.392;9.750;2022-11-20T03:16:30;19.40;;;11.07;;
30635;SDS011;17400;52.392;9.750;2022-11-20T03:18:59;20.43;;;10.83;;
30635;SDS011;17400;52.392;9.750;2022-11-20T03:21:27;18.77;;;10.90;;
30635;SDS011;17400;52.392;9.750;2022-11-20T03:23:54;19.67;;;10.17;;
30635;SDS011;17400;52.392;9.750;2022-11-20T03:26:23;17.70;;;9.40;;
30635;SDS011;17400;52.392;9.750;2022-11-20T03:28:52;16.37;;;8.63;;
30635;SDS011;17400;52.392;9.750;2022-11-20T03:31:23;17.17;;;8.90;;
30635;SDS011;17400;52.392;9.750;2022-11-20T03:33:52;15.73;;;8.17;;
30635;SDS011;17400;52.392;9.750;2022-11-20T03:36:20;18.37;;;8.57;;
30635;SDS011;17400;52.392;9.750;2022-11-20T03:38:48;22.17;;;10.93;;
30635;SDS011;17400;52.392;9.750;2022-11-20T03:41:16;17.43;;;9.67;;
30635;SDS011;17400;52.392;9.750;2022-11-20T03:43:46;15.10;;;8.77;;
30635;SDS011;17400;52.392;9.750;2022-11-20T03:46:15;17.17;;;8.87;;
30635;SDS011;17400;52.392;9.750;2022-11-20T03:48:44;15.37;;;9.20;;
30635;SDS011;17400;52.392;9.750;2022-11-20T03:51:18;12.93;;;8.37;;
30635;SDS011;17400;52.392;9.750;2022-11-20T03:53:47;12.47;;;8.13;;
30635;SDS011;17400;52.392;9.750;2022-11-20T03:56:16;12.87;;;6.40;;
30635;SDS011;17400;52.392;9.750;2022-11-20T03:58:45;18.47;;;8.57;;
30635;SDS011;17400;52.392;9.750;2022-11-20T04:01:13;14.40;;;8.13;;
30635;SDS011;17400;52.392;9.750;2022-11-20T04:03:44;21.73;;;8.53;;
30635;SDS011;17400;52.392;9.750;2022-11-20T04:06:13;13.33;;;9.00;;
30635;SDS011;17400;52.392;9.750;2022-11-20T04:08:42;19.17;;;9.77;;
30635;SDS011;17400;52.392;9.750;2022-11-20T04:11:18;18.37;;;8.97;;
30635;SDS011;17400;52.392;9.750;2022-11-20T04:13:48;18.83;;;9.90;;
30635;SDS011;17400;52.392;9.750;2022-11-20T04:16:18;16.47;;;9.17;;
30635;SDS011;17400;52.392;9.750;2022-11-20T04:18:50;17.03;;;8.73;;
30635;SDS011;17400;52.392;9.750;2022-11-20T04:21:19;17.67;;;9.07;;
30635;SDS011;17400;52.392;9.750;2022-11-20T04:23:47;16.23;;;9.63;;
30635;SDS011;17400;52.392;9.750;2022-11-20T04:26:15;14.63;;;8.73;;
30635;SDS011;17400;52.392;9.750;2022-11-20T04:28:43;16.33;;;9.50;;
30635;SDS011;17400;52.392;9.750;2022-11-20T04:31:11;9.80;;;6.57;;
30635;SDS011;17400;52.392;9.750;2022-11-20T04:33:42;13.43;;;7.97;;
30635;SDS011;17400;52.392;9.750;2022-11-20T04:36:13;16.87;;;10.33;;
30635;SDS011;17400;52.392;9.750;2022-11-20T04:38:41;20.17;;;10.40;;
30635;SDS011;17400;52.392;9.750;2022-11-20T04:41:11;16.07;;;9.73;;
30635;SDS011;17400;52.392;9.750;2022-11-20T04:43:45;15.37;;;9.77;;
30635;SDS011;17400;52.392;9.750;2022-11-20T04:46:13;15.10;;;9.63;;
30635;SDS011;17400;52.392;9.750;2022-11-20T04:48:42;15.70;;;9.07;;
30635;SDS011;17400;52.392;9.750;2022-11-20T04:51:09;19.00;;;10.60;;
30635;SDS011;17400;52.392;9.750;2022-11-20T04:53:39;17.43;;;9.93;;
30635;SDS011;17400;52.392;9.750;2022-11-20T04:56:07;13.07;;;8.07;;
30635;SDS011;17400;52.392;9.750;2022-11-20T04:58:37;15.10;;;10.03;;
30635;SDS011;17400;52.392;9.750;2022-11-20T05:01:06;16.13;;;9.23;;
30635;SDS011;17400;52.392;9.750;2022-11-20T05:03:36;21.17;;;9.90;;
30635;SDS011;17400;52.392;9.750;2022-11-20T05:06:08;15.10;;;8.93;;
30635;SDS011;17400;52.392;9.750;2022-11-20T05:08:38;12.97;;;6.97;;
30635;SDS011;17400;52.392;9.750;2022-11-20T05:11:06;12.67;;;7.80;;
30635;SDS011;17400;52.392;9.750;2022-11-20T05:13:35;14.13;;;8.43;;
30635;SDS011;17400;52.392;9.750;2022-11-20T05:16:04;14.50;;;7.20;;
30635;SDS011;17400;52.392;9.750;2022-11-20T05:18:34;16.30;;;9.13;;
30635;SDS011;17400;52.392;9.750;2022-11-20T05:21:03;15.30;;;8.87;;
30635;SDS011;17400;52.392;9.750;2022-11-20T05:23:31;15.80;;;8.50;;
30635;SDS011;17400;52.392;9.750;2022-11-20T05:26:01;14.90;;;8.43;;
30635;SDS011;17400;52.392;9.750;2022-11-20T05:28:30;15.03;;;7.83;;
30635;SDS011;17400;52.392;9.750;2022-11-20T05:31:03;14.93;;;8.03;;
30635;SDS011;17400;52.392;9.750;2022-11-20T05:33:32;14.97;;;8.03;;
30635;SDS011;17400;52.392;9.750;2022-11-20T05:36:00;15.17;;;8.80;;
30635;SDS011;17400;52.392;9.750;2022-11-20T05:38:29;12.97;;;8.07;;
30635;SDS011;17400;52.392;9.750;2022-11-20T05:41:03;10.50;;;5.60;;
30635;SDS011;17400;52.392;9.750;2022-11-20T05:43:32;8.43;;;4.67;;
30635;SDS011;17400;52.392;9.750;2022-11-20T05:46:01;17.50;;;7.40;;
30635;SDS011;17400;52.392;9.750;2022-11-20T05:48:29;15.03;;;7.47;;
30635;SDS011;17400;52.392;9.750;2022-11-20T05:50:57;13.03;;;7.27;;
30635;SDS011;17400;52.392;9.750;2022-11-20T05:53:26;13.90;;;6.77;;
30635;SDS011;17400;52.392;9.750;2022-11-20T05:55:58;14.10;;;7.07;;
30635;SDS011;17400;52.392;9.750;2022-11-20T05:58:27;15.97;;;7.93;;
30635;SDS011;17400;52.392;9.750;2022-11-20T06:01:02;15.17;;;7.57;;
30635;SDS011;17400;52.392;9.750;2022-11-20T06:03:31;17.13;;;8.90;;
30635;SDS011;17400;52.392;9.750;2022-11-20T06:05:59;14.07;;;7.57;;
30635;SDS011;17400;52.392;9.750;2022-11-20T06:08:27;11.13;;;6.30;;
30635;SDS011;17400;52.392;9.750;2022-11-20T06:10:55;9.73;;;5.67;;
30635;SDS011;17400;52.392;9.750;2022-11-20T06:13:23;11.93;;;5.87;;
30635;SDS011;17400;52.392;9.750;2022-11-20T06:15:53;13.90;;;6.27;;
30635;SDS011;17400;52.392;9.750;2022-11-20T06:18:21;14.23;;;6.97;;
30635;SDS011;17400;52.392;9.750;2022-11-20T06:20:49;17.30;;;9.33;;
30635;SDS011;17400;52.392;9.750;2022-11-20T06:23:17;12.63;;;7.30;;
30635;SDS011;17400;52.392;9.750;2022-11-20T06:25:45;13.70;;;8.57;;
30635;SDS011;17400;52.392;9.750;2022-11-20T06:28:13;26.37;;;12.07;;
30635;SDS011;17400;52.392;9.750;2022-11-20T06:30:44;20.13;;;9.53;;
30635;SDS011;17400;52.392;9.750;2022-11-20T06:33:13;12.67;;;6.70;;
30635;SDS011;17400;52.392;9.750;2022-11-20T06:35:41;9.33;;;5.67;;
30635;SDS011;17400;52.392;9.750;2022-11-20T06:38:09;12.10;;;5.60;;
30635;SDS011;17400;52.392;9.750;2022-11-20T06:40:39;12.10;;;6.40;;
30635;SDS011;17400;52.392;9.750;2022-11-20T06:43:07;11.17;;;6.90;;
30635;SDS011;17400;52.392;9.750;2022-11-20T06:45:35;11.47;;;6.80;;
30635;SDS011;17400;52.392;9.750;2022-11-20T06:48:03;13.37;;;7.23;;
30635;SDS011;17400;52.392;9.750;2022-11-20T06:50:32;14.10;;;8.50;;
30635;SDS011;17400;52.392;9.750;2022-11-20T06:53:00;16.33;;;7.63;;
30635;SDS011;17400;52.392;9.750;2022-11-20T06:55:30;18.17;;;5.97;;
30635;SDS011;17400;52.392;9.750;2022-11-20T06:57:58;10.27;;;5.23;;
30635;SDS011;17400;52.392;9.750;2022-11-20T07:00:26;8.10;;;4.93;;
30635;SDS011;17400;52.392;9.750;2022-11-20T07:02:53;9.67;;;4.57;;
30635;SDS011;17400;52.392;9.750;2022-11-20T07:05:21;10.43;;;4.77;;
30635;SDS011;17400;52.392;9.750;2022-11-20T07:07:50;11.37;;;5.53;;
30635;SDS011;17400;52.392;9.750;2022-11-20T07:10:18;9.47;;;5.87;;
30635;SDS011;17400;52.392;9.750;2022-11-20T07:12:49;12.40;;;6.27;;
30635;SDS011;17400;52.392;9.750;2022-11-20T07:15:18;11.87;;;6.77;;
30635;SDS011;17400;52.392;9.750;2022-11-20T07:17:46;12.40;;;7.47;;
30635;SDS011;17400;52.392;9.750;2022-11-20T07:20:13;11.27;;;6.80;;
30635;SDS011;17400;52.392;9.750;2022-11-20T07:22:42;11.83;;;6.27;;
30635;SDS011;17400;52.392;9.750;2022-11-20T07:25:11;10.57;;;5.63;;
30635;SDS011;17400;52.392;9.750;2022-11-20T07:27:39;13.03;;;6.73;;
30635;SDS011;17400;52.392;9.750;2022-11-20T07:30:07;14.53;;;8.13;;
30635;SDS011;17400;52.392;9.750;2022-11-20T07:32:35;20.33;;;11.37;;
30635;SDS011;17400;52.392;9.750;2022-11-20T07:35:03;22.80;;;8.90;;
30635;SDS011;17400;52.392;9.750;2022-11-20T07:37:33;16.67;;;9.27;;
30635;SDS011;17400;52.392;9.750;2022-11-20T07:40:01;14.57;;;7.87;;
30635;SDS011;17400;52.392;9.750;2022-11-20T07:42:30;13.63;;;7.63;;
30635;SDS011;17400;52.392;9.750;2022-11-20T07:44:58;13.90;;;7.63;;
30635;SDS011;17400;52.392;9.750;2022-11-20T07:47:26;12.03;;;7.87;;
30635;SDS011;17400;52.392;9.750;2022-11-20T07:49:53;18.60;;;9.77;;
30635;SDS011;17400;52.392;9.750;2022-11-20T07:52:21;13.93;;;7.30;;
30635;SDS011;17400;52.392;9.750;2022-11-20T07:54:49;10.30;;;6.40;;
30635;SDS011;17400;52.392;9.750;2022-11-20T07:57:17;6.53;;;4.00;;
30635;SDS011;17400;52.392;9.750;2022-11-20T07:59:49;10.53;;;5.97;;
30635;SDS011;17400;52.392;9.750;2022-11-20T08:02:17;17.33;;;9.37;;
30635;SDS011;17400;52.392;9.750;2022-11-20T08:04:45;13.20;;;6.60;;
30635;SDS011;17400;52.392;9.750;2022-11-20T08:07:13;15.27;;;8.23;;
30635;SDS011;17400;52.392;9.750;2022-11-20T08:09:41;7.23;;;3.80;;
30635;SDS011;17400;52.392;9.750;2022-11-20T08:12:08;7.73;;;4.80;;
30635;SDS011;17400;52.392;9.750;2022-11-20T08:15:06;11.13;;;6.57;;
30635;SDS011;17400;52.392;9.750;2022-11-20T08:17:38;9.87;;;4.80;;
30635;SDS011;17400;52.392;9.750;2022-11-20T08:20:06;9.53;;;4.77;;
30635;SDS011;17400;52.392;9.750;2022-11-20T08:22:35;11.00;;;5.13;;
30635;SDS011;17400;52.392;9.750;2022-11-20T08:25:03;15.37;;;7.07;;
30635;SDS011;17400;52.392;9.750;2022-11-20T08:27:31;10.70;;;6.93;;
30635;SDS011;17400;52.392;9.750;2022-11-20T08:30:01;5.97;;;3.67;;
30635;SDS011;17400;52.392;9.750;2022-11-20T08:32:30;6.20;;;4.13;;
30635;SDS011;17400;52.392;9.750;2022-11-20T08:34:58;10.77;;;5.63;;
30635;SDS011;17400;52.392;9.750;2022-11-20T08:37:25;8.33;;;4.60;;
30635;SDS011;17400;52.392;9.750;2022-11-20T08:39:53;13.07;;;5.57;;
30635;SDS011;17400;52.392;9.750;2022-11-20T08:42:23;13.97;;;7.40;;
30635;SDS011;17400;52.392;9.750;2022-11-20T08:44:51;15.37;;;8.87;;
30635;SDS011;17400;52.392;9.750;2022-11-20T08:47:19;13.07;;;6.80;;
30635;SDS011;17400;52.392;9.750;2022-11-20T08:49:48;11.03;;;6.03;;
30635;SDS011;17400;52.392;9.750;2022-11-20T08:52:16;14.03;;;6.93;;
30635;SDS011;17400;52.392;9.750;2022-11-20T08:54:44;14.53;;;8.57;;
30635;SDS011;17400;52.392;9.750;2022-11-20T08:57:12;11.33;;;6.87;;
30635;SDS011;17400;52.392;9.750;2022-11-20T08:59:40;10.33;;;4.93;;
30635;SDS011;17400;52.392;9.750;2022-11-20T09:02:27;12.97;;;7.70;;
30635;SDS011;17400;52.392;9.750;2022-11-20T09:04:56;12.87;;;7.60;;
30635;SDS011;17400;52.392;9.750;2022-11-20T09:07:24;12.70;;;7.57;;
30635;SDS011;17400;52.392;9.750;2022-11-20T09:09:52;15.50;;;7.73;;
30635;SDS011;17400;52.392;9.750;2022-11-20T09:12:40;14.10;;;8.37;;
30635;SDS011;17400;52.392;9.750;2022-11-20T09:15:08;13.50;;;7.60;;
30635;SDS011;17400;52.392;9.750;2022-11-20T09:17:37;15.60;;;8.70;;
30635;SDS011;17400;52.392;9.750;2022-11-20T09:20:07;19.13;;;9.37;;
30635;SDS011;17400;52.392;9.750;2022-11-20T09:22:38;14.90;;;8.30;;
30635;SDS011;17400;52.392;9.750;2022-11-20T09:25:07;14.40;;;8.17;;
30635;SDS011;17400;52.392;9.750;2022-11-20T09:27:35;13.53;;;7.83;;
30635;SDS011;17400;52.392;9.750;2022-11-20T09:30:03;15.93;;;8.77;;
30635;SDS011;17400;52.392;9.750;2022-11-20T09:32:32;15.80;;;8.20;;
30635;SDS011;17400;52.392;9.750;2022-11-20T09:35:00;15.57;;;8.00;;
30635;SDS011;17400;52.392;9.750;2022-11-20T09:37:29;19.83;;;8.60;;
30635;SDS011;17400;52.392;9.750;2022-11-20T09:39:56;19.67;;;8.87;;
30635;SDS011;17400;52.392;9.750;2022-11-20T09:42:27;15.03;;;8.07;;
30635;SDS011;17400;52.392;9.750;2022-11-20T09:45:16;12.53;;;7.53;;
30635;SDS011;17400;52.392;9.750;2022-11-20T09:47:54;11.50;;;5.83;;
30635;SDS011;17400;52.392;9.750;2022-11-20T09:50:32;13.73;;;7.40;;
30635;SDS011;17400;52.392;9.750;2022-11-20T09:53:16;15.53;;;8.00;;
30635;SDS011;17400;52.392;9.750;2022-11-20T09:55:51;17.03;;;9.30;;
30635;SDS011;17400;52.392;9.750;2022-11-20T09:58:23;18.00;;;9.67;;
30635;SDS011;17400;52.392;9.750;2022-11-20T10:00:59;14.43;;;9.63;;
30635;SDS011;17400;52.392;9.750;2022-11-20T10:03:34;12.43;;;7.47;;
30635;SDS011;17400;52.392;9.750;2022-11-20T10:06:08;19.83;;;8.43;;
30635;SDS011;17400;52.392;9.750;2022-11-20T10:08:43;13.73;;;7.47;;
30635;SDS011;17400;52.392;9.750;2022-11-20T10:11:17;15.33;;;9.27;;
30635;SDS011;17400;52.392;9.750;2022-11-20T10:13:55;14.40;;;8.77;;
30635;SDS011;17400;52.392;9.750;2022-11-20T10:16:32;15.13;;;9.03;;
30635;SDS011;17400;52.392;9.750;2022-11-20T10:19:10;21.37;;;9.50;;
30635;SDS011;17400;52.392;9.750;2022-11-20T10:21:55;13.63;;;7.57;;
30635;SDS011;17400;52.392;9.750;2022-11-20T10:24:40;11.83;;;8.00;;
30635;SDS011;17400;52.392;9.750;2022-11-20T10:30:08;11.97;;;7.30;;
30635;SDS011;17400;52.392;9.750;2022-11-20T10:32:38;12.43;;;7.13;;
30635;SDS011;17400;52.392;9.750;2022-11-20T10:35:18;12.33;;;6.77;;
30635;SDS011;17400;52.392;9.750;2022-11-20T10:37:51;12.70;;;6.93;;
30635;SDS011;17400;52.392;9.750;2022-11-20T10:40:27;18.30;;;10.73;;
30635;SDS011;17400;52.392;9.750;2022-11-20T10:42:59;15.40;;;8.30;;
30635;SDS011;17400;52.392;9.750;2022-11-20T10:45:35;11.10;;;6.87;;
30635;SDS011;17400;52.392;9.750;2022-11-20T10:48:15;10.83;;;6.67;;
30635;SDS011;17400;52.392;9.750;2022-11-20T10:53:48;11.43;;;6.13;;
30635;SDS011;17400;52.392;9.750;2022-11-20T10:56:27;8.97;;;5.60;;
30635;SDS011;17400;52.392;9.750;2022-11-20T10:59:04;16.37;;;6.97;;
30635;SDS011;17400;52.392;9.750;2022-11-20T11:01:51;11.77;;;6.50;;
30635;SDS011;17400;52.392;9.750;2022-11-20T11:04:28;12.60;;;6.23;;
30635;SDS011;17400;52.392;9.750;2022-11-20T11:07:04;13.03;;;6.23;;
30635;SDS011;17400;52.392;9.750;2022-11-20T11:09:38;12.77;;;6.10;;
30635;SDS011;17400;52.392;9.750;2022-11-20T11:12:11;12.20;;;4.57;;
30635;SDS011;17400;52.392;9.750;2022-11-20T11:14:44;11.03;;;5.17;;
30635;SDS011;17400;52.392;9.750;2022-11-20T11:17:20;10.60;;;6.13;;
30635;SDS011;17400;52.392;9.750;2022-11-20T11:20:02;16.07;;;7.23;;
30635;SDS011;17400;52.392;9.750;2022-11-20T11:22:34;13.40;;;7.93;;
30635;SDS011;17400;52.392;9.750;2022-11-20T11:25:11;14.57;;;8.13;;
30635;SDS011;17400;52.392;9.750;2022-11-20T11:27:49;19.60;;;9.03;;
30635;SDS011;17400;52.392;9.750;2022-11-20T11:30:18;9.13;;;5.10;;
30635;SDS011;17400;52.392;9.750;2022-11-20T11:32:47;11.37;;;6.73;;
30635;SDS011;17400;52.392;9.750;2022-11-20T11:35:22;14.13;;;6.93;;
30635;SDS011;17400;52.392;9.750;2022-11-20T11:37:53;13.57;;;8.57;;
30635;SDS011;17400;52.392;9.750;2022-11-20T11:40:31;10.50;;;6.43;;
30635;SDS011;17400;52.392;9.750;2022-11-20T11:43:03;11.43;;;6.77;;
30635;SDS011;17400;52.392;9.750;2022-11-20T11:45:54;21.07;;;11.33;;
30635;SDS011;17400;52.392;9.750;2022-11-20T11:48:21;20.83;;;11.27;;
30635;SDS011;17400;52.392;9.750;2022-11-20T11:50:50;18.87;;;10.10;;
30635;SDS011;17400;52.392;9.750;2022-11-20T11:53:19;16.97;;;8.13;;
30635;SDS011;17400;52.392;9.750;2022-11-20T11:55:49;32.27;;;13.53;;
30635;SDS011;17400;52.392;9.750;2022-11-20T11:58:38;32.77;;;14.23;;
30635;SDS011;17400;52.392;9.750;2022-11-20T12:01:13;22.97;;;12.03;;
30635;SDS011;17400;52.392;9.750;2022-11-20T12:03:52;29.13;;;12.50;;
30635;SDS011;17400;52.392;9.750;2022-11-20T12:06:27;36.47;;;14.87;;
30635;SDS011;17400;52.392;9.750;2022-11-20T12:08:59;31.00;;;13.47;;
30635;SDS011;17400;52.392;9.750;2022-11-20T12:11:31;20.27;;;9.50;;
30635;SDS011;17400;52.392;9.750;2022-11-20T12:14:11;15.77;;;7.90;;
30635;SDS011;17400;52.392;9.750;2022-11-20T12:16:42;14.37;;;8.10;;
30635;SDS011;17400;52.392;9.750;2022-11-20T12:19:10;14.53;;;8.67;;
30635;SDS011;17400;52.392;9.750;2022-11-20T12:21:43;14.20;;;8.67;;
30635;SDS011;17400;52.392;9.750;2022-11-20T12:27:36;14.77;;;8.73;;
30635;SDS011;17400;52.392;9.750;2022-11-20T12:30:21;18.27;;;10.40;;
30635;SDS011;17400;52.392;9.750;2022-11-20T12:41:26;14.17;;;8.37;;
30635;SDS011;17400;52.392;9.750;2022-11-20T12:44:29;12.57;;;7.73;;
30635;SDS011;17400;52.392;9.750;2022-11-20T12:47:42;15.40;;;7.70;;
30635;SDS011;17400;52.392;9.750;2022-11-20T12:50:30;19.83;;;8.20;;
30635;SDS011;17400;52.392;9.750;2022-11-20T12:53:30;18.20;;;8.83;;
30635;SDS011;17400;52.392;9.750;2022-11-20T12:56:05;14.03;;;8.23;;
30635;SDS011;17400;52.392;9.750;2022-11-20T12:58:44;16.23;;;9.07;;
30635;SDS011;17400;52.392;9.750;2022-11-20T13:01:23;17.37;;;8.43;;
30635;SDS011;17400;52.392;9.750;2022-11-20T13:04:15;15.50;;;9.10;;
30635;SDS011;17400;52.392;9.750;2022-11-20T13:06:52;14.83;;;8.97;;
30635;SDS011;17400;52.392;9.750;2022-11-20T13:09:21;13.40;;;7.17;;
30635;SDS011;17400;52.392;9.750;2022-11-20T13:11:52;18.07;;;8.93;;
30635;SDS011;17400;52.392;9.750;2022-11-20T13:14:31;16.40;;;7.87;;
30635;SDS011;17400;52.392;9.750;2022-11-20T13:17:05;18.03;;;7.70;;
30635;SDS011;17400;52.392;9.750;2022-11-20T13:19:41;15.40;;;9.43;;
30635;SDS011;17400;52.392;9.750;2022-11-20T13:22:24;18.07;;;8.43;;
30635;SDS011;17400;52.392;9.750;2022-11-20T13:24:53;15.43;;;9.27;;
30635;SDS011;17400;52.392;9.750;2022-11-20T13:27:21;19.17;;;10.20;;
30635;SDS011;17400;52.392;9.750;2022-11-20T13:30:00;15.90;;;8.70;;
30635;SDS011;17400;52.392;9.750;2022-11-20T13:32:47;17.17;;;10.17;;
30635;SDS011;17400;52.392;9.750;2022-11-20T13:35:25;16.87;;;8.37;;
30635;SDS011;17400;52.392;9.750;2022-11-20T13:38:01;13.27;;;7.83;;
30635;SDS011;17400;52.392;9.750;2022-11-20T13:40:32;20.07;;;8.70;;
30635;SDS011;17400;52.392;9.750;2022-11-20T13:43:02;21.70;;;11.33;;
30635;SDS011;17400;52.392;9.750;2022-11-20T13:45:35;18.90;;;9.33;;
30635;SDS011;17400;52.392;9.750;2022-11-20T13:48:04;16.17;;;8.97;;
30635;SDS011;17400;52.392;9.750;2022-11-20T13:50:48;18.50;;;10.17;;
30635;SDS011;17400;52.392;9.750;2022-11-20T13:53:29;15.13;;;8.67;;
30635;SDS011;17400;52.392;9.750;2022-11-20T13:56:10;16.33;;;8.60;;
30635;SDS011;17400;52.392;9.750;2022-11-20T13:58:44;15.93;;;9.70;;
30635;SDS011;17400;52.392;9.750;2022-11-20T14:01:21;18.07;;;7.93;;
30635;SDS011;17400;52.392;9.750;2022-11-20T14:03:51;14.50;;;8.20;;
30635;SDS011;17400;52.392;9.750;2022-11-20T14:06:40;16.23;;;8.43;;
30635;SDS011;17400;52.392;9.750;2022-11-20T14:09:10;11.13;;;7.23;;
30635;SDS011;17400;52.392;9.750;2022-11-20T14:11:45;16.07;;;8.23;;
30635;SDS011;17400;52.392;9.750;2022-11-20T14:14:15;14.10;;;7.93;;
30635;SDS011;17400;52.392;9.750;2022-11-20T14:16:44;17.90;;;7.87;;
30635;SDS011;17400;52.392;9.750;2022-11-20T14:19:23;16.10;;;8.20;;
30635;SDS011;17400;52.392;9.750;2022-11-20T14:22:09;15.97;;;7.40;;
30635;SDS011;17400;52.392;9.750;2022-11-20T14:24:43;19.73;;;9.83;;
30635;SDS011;17400;52.392;9.750;2022-11-20T14:27:12;11.93;;;8.13;;
30635;SDS011;17400;52.392;9.750;2022-11-20T14:29:41;16.10;;;9.40;;
30635;SDS011;17400;52.392;9.750;2022-11-20T14:32:10;15.70;;;10.07;;
30635;SDS011;17400;52.392;9.750;2022-11-20T14:34:41;16.33;;;9.80;;
30635;SDS011;17400;52.392;9.750;2022-11-20T14:37:13;17.87;;;9.27;;
30635;SDS011;17400;52.392;9.750;2022-11-20T14:39:48;13.87;;;9.03;;
30635;SDS011;17400;52.392;9.750;2022-11-20T14:42:19;16.90;;;9.17;;
30635;SDS011;17400;52.392;9.750;2022-11-20T14:44:48;15.43;;;8.90;;
30635;SDS011;17400;52.392;9.750;2022-11-20T14:47:18;18.43;;;8.37;;
30635;SDS011;17400;52.392;9.750;2022-11-20T14:49:48;19.30;;;9.47;;
30635;SDS011;17400;52.392;9.750;2022-11-20T14:52:19;24.17;;;10.13;;
30635;SDS011;17400;52.392;9.750;2022-11-20T14:54:48;17.90;;;9.70;;
30635;SDS011;17400;52.392;9.750;2022-11-20T14:57:21;25.37;;;11.53;;
30635;SDS011;17400;52.392;9.750;2022-11-20T15:00:03;28.07;;;14.77;;
30635;SDS011;17400;52.392;9.750;2022-11-20T15:02:33;36.70;;;17.10;;
30635;SDS011;17400;52.392;9.750;2022-11-20T15:05:01;60.33;;;25.67;;
30635;SDS011;17400;52.392;9.750;2022-11-20T15:07:32;53.00;;;24.30;;
30635;SDS011;17400;52.392;9.750;2022-11-20T15:10:03;28.73;;;13.67;;
30635;SDS011;17400;52.392;9.750;2022-11-20T15:12:33;21.97;;;12.87;;
30635;SDS011;17400;52.392;9.750;2022-11-20T15:15:05;23.03;;;13.83;;